AirNav   Air Wisconsin Up To $57,000 Bonus
 
 982 users online  

AL75 Gulf State Park Seaplane Base
Gulf Shores, Alabama, USA

GOING TO GULF SHORES?


FAA INFORMATION EFFECTIVE 15 AUGUST 2019

Location

FAA Identifier: AL75
Lat/Long: 30-15-47.8000N 087-38-12.8000W
30-15.796667N 087-38.213333W
30.2632778,-87.6368889
(estimated)
Elevation: 0 ft. / 0 m (estimated)
From city: 3 miles E of GULF SHORES, AL
Time zone: UTC -5 (UTC -6 during Standard Time)
Zip code: 36542

Seaplane Base Operations

Seaplane Base use: Private use. Permission required prior to landing
Activation date: 12/2005
Control tower: no
ARTCC: JACKSONVILLE CENTER
FSS: ANNISTON FLIGHT SERVICE STATION
Attendance: UNATNDD
Segmented circle: no

Seaplane Base Communications

WX AWOS-3PT at JKA (2.4 nm NW): 134.525 (251-968-7581)
WX AWOS-3PT at CQF (17 nm NW): 118.425 (251-928-3242)

Nearby radio navigation aids

VOR radial/distance  VOR name  Freq  Var
NUNr230/(20.0)SAUFLEY VOR108.8001E
BFMr130/30.1BROOKLEY VORTAC112.8004E

 
NDB name  Hdg/Dist  Freq  Var  ID
PICKENS248/25.932602WPKZ .--. -.- --..

Seaplane Base Services

Runway Information

Runway 6W/24W

Dimensions: 4330 x 300 ft. / 1320 x 91 m
Surface: water
RUNWAY 6W  RUNWAY 24W
Traffic pattern: leftleft

Seaplane Base Ownership and Management from official FAA records

Ownership: Privately-owned
Owner: DAVID M. WALTER
P.O. BOX 998
ORANGE BEACH, AL 36561
Phone 251-979-2200
Manager: DAVID M. WALTER
P.O. BOX 998
ORANGE BEACH, AL 36561
Phone 251-979-2200

Additional Remarks

FOR CD CTC JACKSONVILLE ARTCC AT 904-845-1592.

Instrument Procedures

There are no published instrument procedures at AL75.

Some nearby airports with instrument procedures:

KJKA - Jack Edwards National Airport (2 nm NW)
5R4 - Foley Municipal Airport (10 nm N)
KCQF - H L Sonny Callahan Airport (17 nm NW)
KNPA - Pensacola Naval Air Station/Forrest Sherman Field (17 nm E)
KPNS - Pensacola International Airport (27 nm NE)
 
Loc | Ops | Rwys | IFR | FBO | Links
Com | Nav | Svcs | Stats | Notes

Continental Motors
AirBoss

 
Area around AL75 (Gulf State Park Seaplane Base)
 
Road maps at: MapQuest Bing Google
 
Aerial photo
No photo
 
Sectional chart

 
Airport distance calculator
Flying to Gulf State Park Seaplane Base? Find the distance to fly.

From to AL75

Sunrise and sunset
Times for 18-Aug-2019
 Local
(UTC-5)
 Zulu
(UTC)
Morning civil twilight05:5510:55
Sunrise06:2011:20
Sunset19:2800:28
Evening civil twilight19:5300:53

Current date and time
Zulu (UTC)  19-Aug-2019 00:30:26
Local (UTC-5)  18-Aug-2019 19:30:26
 
METAR
KJKA 
2nm NW 
190015Z AUTO 25007KT 10SM SCT020 SCT027 28/25 A3000 RMK AO2 LTG DSNT N T02800250
KCQF 
17nm NW 
190015Z AUTO 22003KT 10SM SCT021 27/23 A3000 RMK AO2
KNPA 
17nm E 
182356Z VRB05KT 10SM FEW026 SCT090 BKN110 BKN250 28/26 A2999 RMK AO2 RAE25 SLP155 T2 SET P0000 6//// T02830256 10328 20267 53006 $
TAF
KNPA 
17nm E 
1823/1923 25013G20KT 9999 VCTS SCT020CB SCT050 BKN200 QNH2990INS BECMG 1900/1902 24010G15KT 9999 NSW SCT080 SCT200 QNH2993INS AUTOMATED SENSOR METWATCH 1823 TIL 1904 T24/1910Z T32/1920Z FN00211
NOTAMs
Click for the latest NOTAMs
NOTAMs are issued by the DoD/FAA and will open in a separate window not controlled by AirNav.

 

 
 

Would you like to see your business listed on this page?

 If your business provides an interesting product or service to pilots, flight crews, aircraft, or users of the Gulf State Park Seaplane Base, you should consider listing it here.  To start the listing process, click on the button below
 
Add a business
 

Other Pages about Gulf State Park Seaplane Base

Update a link
 
Copyright © AirNav, LLC. All rights reserved. Privacy Policy  Contact